createdAt,value
2019-03-24T00:12:53.263Z,93.83
2019-03-24T00:15:26.218Z,94.46
2019-03-24T00:17:51.943Z,93.43
2019-03-24T00:20:20.405Z,93.22
2019-03-24T00:23:08.258Z,93.15
2019-03-24T00:25:36.742Z,93.59
2019-03-24T00:28:24.550Z,94.69
2019-03-24T00:30:53.012Z,93.91
2019-03-24T00:33:21.476Z,94.91
2019-03-24T00:38:23.598Z,94.98
2019-03-24T00:40:52.070Z,94.31
2019-03-24T00:43:39.959Z,94.83
2019-03-24T00:46:08.437Z,94.56
2019-03-24T00:48:36.904Z,94.42
2019-03-24T00:53:58.787Z,93.80
2019-03-24T00:59:20.405Z,95.32
2019-03-24T01:01:48.937Z,94.97
2019-03-24T01:05:15.268Z,95.19
2019-03-24T01:08:03.313Z,95.31
2019-03-24T01:10:31.880Z,95.69
2019-03-24T01:13:00.437Z,96.77
2019-03-24T01:15:28.899Z,96.28
2019-03-24T01:18:16.739Z,95.20
2019-03-24T01:20:45.200Z,95.36
2019-03-24T01:23:33.089Z,96.24
2019-03-24T01:26:01.556Z,97.03
2019-03-24T01:28:30.012Z,96.27
2019-03-24T01:31:17.731Z,94.96
2019-03-24T01:33:46.206Z,94.90
2019-03-24T01:36:14.676Z,95.14
2019-03-24T01:38:43.170Z,95.86
2019-03-24T01:41:30.823Z,97.00
2019-03-24T01:46:32.947Z,95.67
2019-03-24T01:49:01.419Z,95.65
2019-03-24T01:54:03.495Z,96.03
2019-03-24T01:56:31.962Z,95.58
2019-03-24T01:59:00.459Z,95.17
2019-03-24T02:01:28.993Z,95.94
2019-03-24T02:04:16.698Z,96.89
2019-03-24T02:06:45.175Z,97.10
2019-03-24T02:09:13.641Z,96.00
2019-03-24T02:11:42.150Z,96.33
2019-03-24T02:14:10.613Z,96.52
2019-03-24T02:16:59.315Z,97.01
2019-03-24T02:19:28.539Z,96.69
2019-03-24T02:21:56.998Z,96.04
2019-03-24T02:24:44.888Z,95.32
2019-03-24T02:27:32.591Z,95.86
2019-03-24T02:30:01.106Z,95.35
2019-03-24T02:32:48.899Z,96.23
2019-03-24T02:35:17.409Z,96.86
2019-03-24T02:38:05.185Z,96.41
2019-03-24T02:40:52.879Z,95.35
2019-03-24T02:43:21.344Z,96.21
2019-03-24T02:46:23.182Z,97.26
2019-03-24T02:48:39.373Z,96.09
2019-03-24T02:51:07.837Z,96.54
2019-03-24T02:53:55.524Z,96.91
2019-03-24T02:56:43.261Z,95.93
2019-03-24T02:59:11.758Z,95.42
2019-03-24T03:01:40.230Z,95.29
2019-03-24T03:04:08.682Z,96.30
2019-03-24T03:09:11.583Z,96.38
2019-03-24T03:14:33.854Z,97.14
2019-03-24T03:17:21.692Z,96.68
2019-03-24T03:19:50.164Z,96.76
2019-03-24T03:22:20.364Z,96.65
2019-03-24T03:25:08.115Z,98.79
2019-03-24T03:28:16.490Z,97.61
2019-03-24T03:33:38.696Z,97.74
2019-03-24T03:36:07.187Z,97.17
2019-03-24T03:38:35.654Z,97.73
2019-03-24T03:41:23.346Z,97.04
2019-03-24T03:43:51.806Z,96.86
2019-03-24T03:46:20.279Z,96.28
2019-03-24T03:48:48.776Z,97.23
2019-03-24T03:51:17.251Z,97.55
2019-03-24T03:53:45.709Z,96.64
2019-03-24T03:56:14.218Z,96.83
2019-03-24T03:58:42.686Z,97.04
2019-03-24T04:04:25.491Z,97.00
2019-03-24T04:06:53.953Z,96.81
2019-03-24T04:09:22.413Z,96.34
2019-03-24T04:12:10.041Z,95.66
2019-03-24T04:20:21.076Z,97.26
2019-03-24T04:22:49.529Z,97.37
2019-03-24T04:25:17.995Z,97.06
2019-03-24T04:27:46.459Z,97.64
2019-03-24T04:30:54.976Z,96.85
2019-03-24T04:33:23.442Z,97.03
2019-03-24T04:35:51.894Z,97.48
2019-03-24T04:40:54.306Z,96.93
2019-03-24T04:43:22.846Z,97.42
2019-03-24T04:48:45.005Z,96.92
2019-03-24T04:51:13.509Z,96.26
2019-03-24T04:53:42.026Z,97.20
2019-03-24T04:56:10.499Z,97.28
2019-03-24T04:58:38.992Z,97.17
2019-03-24T05:01:07.562Z,97.02
2019-03-24T05:03:35.996Z,97.71
2019-03-24T05:06:44.424Z,96.44
2019-03-24T05:09:54.468Z,97.35
2019-03-24T05:12:23.019Z,98.38
2019-03-24T05:15:31.392Z,97.98
2019-03-24T05:17:59.886Z,98.64
2019-03-24T05:20:28.348Z,97.96
2019-03-24T05:22:56.814Z,97.25
2019-03-24T05:25:25.382Z,97.54
2019-03-24T05:28:13.038Z,96.97
2019-03-24T05:33:15.138Z,97.00
2019-03-24T05:35:43.600Z,97.54
2019-03-24T05:40:45.660Z,96.62
2019-03-24T05:43:14.122Z,95.55
2019-03-24T05:48:17.238Z,96.61
2019-03-24T05:53:19.535Z,96.89
2019-03-24T05:58:21.971Z,97.42
2019-03-24T06:00:50.500Z,96.63
2019-03-24T06:05:52.948Z,97.24
2019-03-24T06:08:21.418Z,97.90
2019-03-24T06:10:49.917Z,97.85
2019-03-24T06:13:18.365Z,98.49
2019-03-24T06:15:46.833Z,98.53
2019-03-24T06:18:15.349Z,98.64
2019-03-24T06:20:43.809Z,98.03
2019-03-24T06:25:59.816Z,98.72
2019-03-24T06:28:28.277Z,97.99
2019-03-24T06:30:56.738Z,98.21
2019-03-24T06:35:59.654Z,98.57
2019-03-24T06:38:28.123Z,98.60
2019-03-24T06:40:56.650Z,98.27
2019-03-24T06:43:25.109Z,99.02
2019-03-24T06:45:53.574Z,99.22
2019-03-24T06:50:56.001Z,98.62
2019-03-24T06:53:43.858Z,97.80
2019-03-24T06:56:12.320Z,96.91
2019-03-24T06:58:40.781Z,96.58
2019-03-24T07:01:09.284Z,97.16
2019-03-24T07:03:37.741Z,96.83
2019-03-24T07:06:06.346Z,96.30
2019-03-24T07:08:34.990Z,96.41
2019-03-24T07:11:08.373Z,95.78
2019-03-24T07:13:33.643Z,95.38
2019-03-24T07:16:02.353Z,95.74
2019-03-24T07:18:30.844Z,96.33
2019-03-24T07:20:59.291Z,96.35
2019-03-24T07:23:27.788Z,96.97
2019-03-24T07:25:56.252Z,96.26
2019-03-24T07:28:25.040Z,96.84
2019-03-24T07:30:53.656Z,96.68
2019-03-24T07:33:25.157Z,96.10
2019-03-24T07:35:53.632Z,95.55
2019-03-24T07:38:22.500Z,95.20
2019-03-24T07:40:50.961Z,95.29
2019-03-24T07:43:19.421Z,95.32
2019-03-24T07:45:47.929Z,94.97
2019-03-24T07:48:19.252Z,94.84
2019-03-24T07:50:46.916Z,94.95
2019-03-24T07:53:15.418Z,95.20
2019-03-24T07:55:43.959Z,94.37
2019-03-24T07:58:12.490Z,93.12
2019-03-24T08:00:41.123Z,92.68
2019-03-24T08:03:09.582Z,94.01
2019-03-24T08:05:38.035Z,94.41
2019-03-24T08:08:06.566Z,94.24
2019-03-24T08:10:35.029Z,92.97
2019-03-24T08:13:03.564Z,93.37
2019-03-24T08:15:32.281Z,93.46
2019-03-24T08:18:00.736Z,91.73
2019-03-24T08:20:29.224Z,93.00
2019-03-24T08:22:57.859Z,93.82
2019-03-24T08:25:26.367Z,93.05
2019-03-24T08:27:54.848Z,92.70
2019-03-24T08:30:29.133Z,92.07
2019-03-24T08:32:57.590Z,91.19
2019-03-24T08:35:26.075Z,92.16
2019-03-24T08:37:54.688Z,91.35
2019-03-24T08:40:23.149Z,90.23
2019-03-24T08:42:51.610Z,89.80
2019-03-24T08:45:27.913Z,89.70
2019-03-24T08:47:57.914Z,89.03
2019-03-24T08:50:26.744Z,87.75
2019-03-24T08:52:55.478Z,88.35
2019-03-24T08:55:24.076Z,89.83
2019-03-24T08:57:52.604Z,88.64
2019-03-24T09:00:30.215Z,89.22
2019-03-24T09:02:51.464Z,89.07
2019-03-24T09:05:19.992Z,88.76
2019-03-24T09:07:48.633Z,87.42
2019-03-24T09:10:17.307Z,86.03
2019-03-24T09:12:45.792Z,86.31
2019-03-24T09:15:14.831Z,86.53
2019-03-24T09:17:43.523Z,85.76
2019-03-24T09:20:12.551Z,85.67
2019-03-24T09:22:41.556Z,84.88
2019-03-24T09:25:10.358Z,84.10
2019-03-24T09:27:38.971Z,83.94
2019-03-24T09:30:19.173Z,83.79
2019-03-24T09:32:47.650Z,83.27
2019-03-24T09:35:16.115Z,82.80
2019-03-24T09:37:44.749Z,82.49
2019-03-24T09:40:18.542Z,82.29
2019-03-24T09:42:46.490Z,82.27
2019-03-24T09:45:15.221Z,81.83
2019-03-24T09:47:43.684Z,80.84
2019-03-24T09:50:12.332Z,81.07
2019-03-24T09:52:40.841Z,81.57
2019-03-24T09:55:09.508Z,80.42
2019-03-24T09:57:37.973Z,78.55
2019-03-24T10:00:06.813Z,77.24
2019-03-24T10:02:35.305Z,77.07
2019-03-24T10:05:04.139Z,76.25
2019-03-24T10:07:32.652Z,76.38
2019-03-24T10:10:01.118Z,76.03
2019-03-24T10:12:29.656Z,75.88
2019-03-24T10:14:58.154Z,75.57
2019-03-24T10:17:26.620Z,75.41
2019-03-24T10:19:55.118Z,75.68
2019-03-24T10:22:23.693Z,75.45
2019-03-24T10:24:52.157Z,75.70
2019-03-24T10:27:20.629Z,75.15
2019-03-24T10:29:49.292Z,74.32
2019-03-24T10:32:17.780Z,73.72
2019-03-24T10:34:46.257Z,72.69
2019-03-24T10:37:14.928Z,72.42
2019-03-24T10:39:43.391Z,72.13
2019-03-24T10:42:11.856Z,71.80
2019-03-24T10:44:40.494Z,71.38
2019-03-24T10:47:09.104Z,70.56
2019-03-24T10:49:37.634Z,70.90
2019-03-24T10:52:06.339Z,69.91
2019-03-24T10:54:34.824Z,69.86
2019-03-24T10:57:05.357Z,69.77
2019-03-24T10:59:33.522Z,69.71
2019-03-24T11:02:02.078Z,69.99
2019-03-24T11:04:30.614Z,69.28
2019-03-24T11:06:59.202Z,68.33
2019-03-24T11:09:27.673Z,67.76
2019-03-24T11:11:56.138Z,68.79
2019-03-24T11:14:24.664Z,69.83
2019-03-24T11:16:53.195Z,69.26
2019-03-24T11:19:21.652Z,69.40
2019-03-24T11:21:50.467Z,68.09
2019-03-24T11:24:18.944Z,67.02
2019-03-24T11:26:47.517Z,68.36
2019-03-24T11:29:16.351Z,68.39
2019-03-24T11:31:44.814Z,67.43
2019-03-24T11:34:13.298Z,67.42
2019-03-24T11:36:41.973Z,67.21
2019-03-24T11:39:10.516Z,67.87
2019-03-24T11:41:39.053Z,68.35
2019-03-24T11:44:07.544Z,67.06
2019-03-24T11:46:36.080Z,67.01
2019-03-24T11:49:04.685Z,66.06
2019-03-24T11:51:33.180Z,66.16
2019-03-24T11:54:01.661Z,65.65
2019-03-24T11:56:30.119Z,66.04
2019-03-24T11:58:58.849Z,66.04
2019-03-24T12:01:37.799Z,66.62
2019-03-24T12:03:57.697Z,66.44
2019-03-24T12:06:26.201Z,65.01
2019-03-24T12:08:54.734Z,65.60
2019-03-24T12:11:23.241Z,66.02
2019-03-24T12:13:52.058Z,65.21
2019-03-24T12:16:20.553Z,64.76
2019-03-24T12:18:49.075Z,64.55
2019-03-24T12:21:17.776Z,63.85
2019-03-24T12:23:46.327Z,64.33
2019-03-24T12:26:14.776Z,64.62
2019-03-24T12:28:43.303Z,65.52
2019-03-24T12:31:11.906Z,64.99
2019-03-24T12:33:40.377Z,65.44
2019-03-24T12:36:09.326Z,65.59
2019-03-24T12:38:37.879Z,65.72
2019-03-24T12:41:06.384Z,65.86
2019-03-24T12:43:35.308Z,65.07
2019-03-24T12:46:03.840Z,65.15
2019-03-24T12:48:32.306Z,64.33
2019-03-24T12:51:00.802Z,64.44
2019-03-24T12:53:29.300Z,64.05
2019-03-24T12:55:57.775Z,63.03
2019-03-24T12:58:26.278Z,62.77
2019-03-24T13:00:54.768Z,62.68
2019-03-24T13:03:42.450Z,61.75
2019-03-24T13:06:30.104Z,61.21
2019-03-24T13:11:32.209Z,60.79
2019-03-24T13:14:00.683Z,60.35
2019-03-24T13:16:29.188Z,59.52
2019-03-24T13:18:57.723Z,59.49
2019-03-24T13:21:26.187Z,59.47
2019-03-24T13:23:54.781Z,59.79
2019-03-24T13:26:23.241Z,60.29
2019-03-24T13:28:51.710Z,60.40
2019-03-24T13:31:20.557Z,59.66
2019-03-24T13:33:49.009Z,57.53
2019-03-24T13:36:17.474Z,57.88
2019-03-24T13:38:47.138Z,58.50
2019-03-24T13:41:15.673Z,59.06
2019-03-24T13:43:44.212Z,59.16
2019-03-24T13:46:13.077Z,58.36
2019-03-24T13:48:41.541Z,58.15
2019-03-24T13:51:10.006Z,57.55
2019-03-24T13:53:38.742Z,56.52
2019-03-24T13:56:07.381Z,56.76
2019-03-24T13:58:35.914Z,57.25
2019-03-24T14:01:06.427Z,56.69
2019-03-24T14:03:34.887Z,57.31
2019-03-24T14:06:03.419Z,57.32
2019-03-24T14:08:31.938Z,57.91
2019-03-24T14:11:00.404Z,58.26
2019-03-24T14:13:28.869Z,61.18
2019-03-24T14:15:57.549Z,61.90
2019-03-24T14:18:26.016Z,62.13
2019-03-24T14:20:54.545Z,60.69
2019-03-24T14:23:23.129Z,60.34
2019-03-24T14:25:51.662Z,59.07
2019-03-24T14:28:20.153Z,60.37
2019-03-24T14:30:49.778Z,61.83
2019-03-24T14:33:18.399Z,62.14
2019-03-24T14:35:46.918Z,63.03
2019-03-24T14:38:15.954Z,63.01
2019-03-24T14:40:44.432Z,63.45
2019-03-24T14:43:12.967Z,64.46
2019-03-24T14:45:41.850Z,65.33
2019-03-24T14:48:10.310Z,65.59
2019-03-24T14:50:38.915Z,66.27
2019-03-24T14:53:07.559Z,65.66
2019-03-24T14:55:36.087Z,65.64
2019-03-24T14:58:04.988Z,65.45
2019-03-24T15:00:37.824Z,65.98
2019-03-24T15:03:06.719Z,65.80
2019-03-24T15:05:35.437Z,66.18
2019-03-24T15:08:04.808Z,66.26
2019-03-24T15:10:33.841Z,65.99
2019-03-24T15:13:02.305Z,66.15
2019-03-24T15:15:30.888Z,66.26
2019-03-24T15:17:59.418Z,66.33
2019-03-24T15:20:27.973Z,66.44
2019-03-24T15:22:56.505Z,66.48
2019-03-24T15:25:25.141Z,65.84
2019-03-24T15:27:53.608Z,65.55
2019-03-24T15:30:22.190Z,65.71
2019-03-24T15:32:50.653Z,65.81
2019-03-24T15:35:19.118Z,66.49
2019-03-24T15:37:48.357Z,66.89
2019-03-24T15:40:16.978Z,66.82
2019-03-24T15:42:45.476Z,67.43
2019-03-24T15:45:14.518Z,67.94
2019-03-24T15:47:43.072Z,68.02
2019-03-24T15:50:11.944Z,67.78
2019-03-24T15:52:40.532Z,67.95
2019-03-24T15:55:09.334Z,68.51
2019-03-24T15:57:37.798Z,67.75
2019-03-24T16:00:08.112Z,67.61
2019-03-24T16:02:36.597Z,67.53
2019-03-24T16:05:06.297Z,67.81
2019-03-24T16:07:35.145Z,67.51
2019-03-24T16:10:05.347Z,67.46
2019-03-24T16:12:33.808Z,67.82
2019-03-24T16:15:02.377Z,67.68
2019-03-24T16:17:30.910Z,67.51
2019-03-24T16:19:59.378Z,67.85
2019-03-24T16:22:27.925Z,67.38
2019-03-24T16:24:56.394Z,67.64
2019-03-24T16:27:24.859Z,68.37
2019-03-24T16:29:53.372Z,67.69
2019-03-24T16:32:21.833Z,68.02
2019-03-24T16:34:50.293Z,67.94
2019-03-24T16:37:18.972Z,68.27
2019-03-24T16:39:47.434Z,68.36
2019-03-24T16:42:15.966Z,68.34
2019-03-24T16:44:44.619Z,68.46
2019-03-24T16:47:13.083Z,68.59
2019-03-24T16:49:41.546Z,68.77
2019-03-24T16:52:10.165Z,68.73
2019-03-24T16:54:38.635Z,68.46
2019-03-24T16:57:07.166Z,68.66
2019-03-24T16:59:35.663Z,68.87
2019-03-24T17:02:04.202Z,68.87
2019-03-24T17:04:32.660Z,68.76
2019-03-24T17:07:01.356Z,68.44
2019-03-24T17:09:29.827Z,68.49
2019-03-24T17:11:58.293Z,68.72
2019-03-24T17:14:27.070Z,69.18
2019-03-24T17:16:55.541Z,69.18
2019-03-24T17:19:23.997Z,68.97
2019-03-24T17:21:52.505Z,69.04
2019-03-24T17:24:20.971Z,69.38
2019-03-24T17:26:49.512Z,69.38
2019-03-24T17:29:18.015Z,69.75
2019-03-24T17:31:46.478Z,70.07
2019-03-24T17:34:15.006Z,70.62
2019-03-24T17:36:43.766Z,70.67
2019-03-24T17:39:12.231Z,71.02
2019-03-24T17:41:40.693Z,70.77
2019-03-24T17:44:09.264Z,71.67
2019-03-24T17:46:37.720Z,71.61
2019-03-24T17:49:06.255Z,71.54
2019-03-24T17:51:34.819Z,71.21
2019-03-24T17:54:03.289Z,71.23
2019-03-24T17:56:31.753Z,71.79
2019-03-24T17:59:00.287Z,72.27
2019-03-24T18:01:28.733Z,71.89
2019-03-24T18:03:57.201Z,72.07
2019-03-24T18:06:25.704Z,72.59
2019-03-24T18:08:54.263Z,72.09
2019-03-24T18:11:22.734Z,71.86
2019-03-24T18:13:51.294Z,72.04
2019-03-24T18:16:19.841Z,72.74
2019-03-24T18:18:48.566Z,72.66
2019-03-24T18:21:17.066Z,72.54
2019-03-24T18:23:45.530Z,72.17
2019-03-24T18:26:14.030Z,72.81
2019-03-24T18:28:42.549Z,72.19
2019-03-24T18:31:11.087Z,72.87
2019-03-24T18:33:39.550Z,72.78
2019-03-24T18:36:08.230Z,74.06
2019-03-24T18:38:36.689Z,73.83
2019-03-24T18:41:05.389Z,74.97
2019-03-24T18:43:33.949Z,74.64
2019-03-24T18:46:02.488Z,75.21
2019-03-24T18:48:30.952Z,75.74
2019-03-24T18:50:59.440Z,75.99
2019-03-24T18:53:27.902Z,76.37
2019-03-24T18:55:56.462Z,76.91
2019-03-24T18:58:25.052Z,76.91
2019-03-24T19:00:53.514Z,76.97
2019-03-24T19:03:21.978Z,76.69
2019-03-24T19:05:50.499Z,76.61
2019-03-24T19:08:18.952Z,76.21
2019-03-24T19:10:47.412Z,76.89
2019-03-24T19:13:16.271Z,77.60
2019-03-24T19:15:44.775Z,77.26
2019-03-24T19:18:13.238Z,77.66
2019-03-24T19:20:41.824Z,77.51
2019-03-24T19:23:10.299Z,76.93
2019-03-24T19:25:38.762Z,76.28
2019-03-24T19:28:07.359Z,76.02
2019-03-24T19:30:38.325Z,76.08
2019-03-24T19:33:07.058Z,75.92
2019-03-24T19:35:35.545Z,75.42
2019-03-24T19:38:04.338Z,74.43
2019-03-24T19:40:33.546Z,73.80
2019-03-24T19:43:02.061Z,72.14
2019-03-24T19:45:30.509Z,71.27
2019-03-24T19:47:58.977Z,71.80
2019-03-24T19:50:27.590Z,71.85
2019-03-24T19:52:56.122Z,75.20
2019-03-24T19:55:24.582Z,75.80
2019-03-24T19:57:53.078Z,75.44
2019-03-24T20:00:21.541Z,75.46
2019-03-24T20:02:50.073Z,76.23
2019-03-24T20:05:18.567Z,76.50
2019-03-24T20:07:48.137Z,77.38
2019-03-24T20:10:17.123Z,77.54
2019-03-24T20:12:45.851Z,77.69
2019-03-24T20:15:14.444Z,77.87
2019-03-24T20:17:42.988Z,78.70
2019-03-24T20:20:12.320Z,78.86
2019-03-24T20:22:41.013Z,79.15
2019-03-24T20:25:09.704Z,79.24
2019-03-24T20:27:38.271Z,80.23
2019-03-24T20:30:09.813Z,80.41
2019-03-24T20:32:38.357Z,80.87
2019-03-24T20:35:07.587Z,80.83
2019-03-24T20:37:36.184Z,80.62
2019-03-24T20:40:06.303Z,80.35
2019-03-24T20:42:34.858Z,80.86
2019-03-24T20:45:03.661Z,80.90
2019-03-24T20:47:32.119Z,80.81
2019-03-24T20:50:00.617Z,81.81
2019-03-24T20:52:29.071Z,81.84
2019-03-24T20:54:57.540Z,81.76
2019-03-24T20:57:26.032Z,81.78
2019-03-24T20:59:54.487Z,82.07
2019-03-24T21:02:22.947Z,82.08
2019-03-24T21:04:51.506Z,82.86
2019-03-24T21:07:19.970Z,81.48
2019-03-24T21:09:48.429Z,81.25
2019-03-24T21:12:16.923Z,81.39
2019-03-24T21:14:45.414Z,81.21
2019-03-24T21:17:13.856Z,81.17
2019-03-24T21:19:42.415Z,81.13
2019-03-24T21:22:10.870Z,80.49
2019-03-24T21:24:39.343Z,80.94
2019-03-24T21:27:07.998Z,80.87
2019-03-24T21:29:36.472Z,81.34
2019-03-24T21:32:04.992Z,81.01
2019-03-24T21:34:33.501Z,81.81
2019-03-24T21:37:01.955Z,81.31
2019-03-24T21:39:30.432Z,81.29
2019-03-24T21:41:58.922Z,82.10
2019-03-24T21:44:27.388Z,82.43
2019-03-24T21:46:55.863Z,82.56
2019-03-24T21:49:24.706Z,83.24
2019-03-24T21:51:53.230Z,83.28
2019-03-24T21:54:21.707Z,82.94
2019-03-24T21:56:50.291Z,83.04
2019-03-24T21:59:18.741Z,83.40
2019-03-24T22:01:47.197Z,83.42
2019-03-24T22:04:15.808Z,83.34
2019-03-24T22:06:44.272Z,82.85
2019-03-24T22:09:12.714Z,83.44
2019-03-24T22:11:41.266Z,83.12
2019-03-24T22:14:09.715Z,83.53
2019-03-24T22:16:38.173Z,84.68
2019-03-24T22:19:06.687Z,83.39
2019-03-24T22:21:35.141Z,83.74
2019-03-24T22:24:03.673Z,83.37
2019-03-24T22:26:32.340Z,83.04
2019-03-24T22:29:00.795Z,83.51
2019-03-24T22:31:29.264Z,83.86
2019-03-24T22:33:57.871Z,84.30
2019-03-24T22:36:26.322Z,84.40
2019-03-24T22:38:54.780Z,84.31
2019-03-24T22:41:23.297Z,84.42
2019-03-24T22:43:51.785Z,84.53
2019-03-24T22:46:20.244Z,84.19
2019-03-24T22:48:48.738Z,84.06
2019-03-24T22:51:17.182Z,83.89
2019-03-24T22:53:45.644Z,84.07
2019-03-24T22:56:14.203Z,84.21
2019-03-24T22:58:42.719Z,84.55
2019-03-24T23:01:11.411Z,84.35
2019-03-24T23:03:39.967Z,84.34
2019-03-24T23:06:08.487Z,84.42
2019-03-24T23:08:36.933Z,84.70
2019-03-24T23:11:05.629Z,84.83
2019-03-24T23:13:34.150Z,84.62
2019-03-24T23:16:02.607Z,84.83
2019-03-24T23:18:31.261Z,83.98
2019-03-24T23:20:59.716Z,83.97
2019-03-24T23:23:28.175Z,83.99
2019-03-24T23:25:56.665Z,84.04
2019-03-24T23:28:25.147Z,84.51
2019-03-24T23:30:53.598Z,84.94
2019-03-24T23:33:22.154Z,85.01
2019-03-24T23:35:50.538Z,84.66
2019-03-24T23:38:18.986Z,85.62
2019-03-24T23:40:47.480Z,84.57
2019-03-24T23:43:15.930Z,85.12
2019-03-24T23:45:44.384Z,85.18
2019-03-24T23:48:12.870Z,85.25
2019-03-24T23:50:41.327Z,84.94
2019-03-24T23:53:09.784Z,84.92
2019-03-24T23:55:38.275Z,84.98
2019-03-24T23:58:06.730Z,85.08
